Ladora, Iowa
Current Conditions -  °F | °C
As of 3:52 AM on Monday 22 Dec 2014 (Local Time) from KCID Reporting Station
Haze Haze  
Wind Chill: 28°   Ceiling: 5500
Heat Index: 36°   Visibility: 6mi
Dew Point: 34°   Wind: 13mph
Humidity: 93%   Direction: 150°SSE
Pressure: 29.77"   Gusts: NA
Location:  41.75°N, 92.18°W
Report Text: KCID 220952Z AUTO 15011KT 6SM BR FEW044 OVC055 02/01 A2977 RMK AO2 SLP088 T00220011 $
Loading
Personal Weather Stations






























Interactive Weather Map New forecast layout! Learn more

10-Day Weather Forecast

Advertisements
Track Severe Weather on mobile